createdAt,value
2018-11-10T00:00:46.397Z,0
2018-11-10T00:01:46.412Z,0
2018-11-10T00:02:46.664Z,0
2018-11-10T00:03:46.626Z,0
2018-11-10T00:04:46.861Z,0
2018-11-10T00:05:46.581Z,0
2018-11-10T00:06:46.027Z,0
2018-11-10T00:07:46.646Z,0
2018-11-10T00:08:46.261Z,0
2018-11-10T00:09:46.248Z,0
2018-11-10T00:10:45.981Z,0
2018-11-10T00:11:46.220Z,0
2018-11-10T00:12:46.200Z,0
2018-11-10T00:13:46.181Z,0
2018-11-10T00:14:46.434Z,0
2018-11-10T00:15:46.673Z,0
2018-11-10T00:16:46.303Z,0
2018-11-10T00:17:46.428Z,0
2018-11-10T00:18:46.620Z,0
2018-11-10T00:19:46.077Z,0
2018-11-10T00:20:46.613Z,0
2018-11-10T00:21:45.779Z,0
2018-11-10T00:22:46.546Z,0
2018-11-10T00:23:46.276Z,0
2018-11-10T00:24:46.287Z,0
2018-11-10T00:25:45.982Z,0
2018-11-10T00:26:45.644Z,0
2018-11-10T00:27:46.476Z,0
2018-11-10T00:28:45.411Z,0
2018-11-10T00:29:46.442Z,0
2018-11-10T00:30:46.428Z,0
2018-11-10T00:31:45.618Z,0
2018-11-10T00:32:45.891Z,0
2018-11-10T00:33:46.125Z,0
2018-11-10T00:34:46.834Z,0
2018-11-10T00:35:46.092Z,0
2018-11-10T00:36:45.802Z,0
2018-11-10T00:37:46.051Z,0
2018-11-10T00:38:46.316Z,0
2018-11-10T00:39:46.283Z,0
2018-11-10T00:40:46.270Z,0
2018-11-10T00:41:45.971Z,0
2018-11-10T00:42:46.236Z,0
2018-11-10T00:43:46.211Z,0
2018-11-10T00:44:45.930Z,0
2018-11-10T00:45:45.381Z,0
2018-11-10T00:46:45.625Z,0
2018-11-10T00:47:45.909Z,0
2018-11-10T00:48:46.136Z,0
2018-11-10T00:49:45.320Z,0
2018-11-10T00:50:45.837Z,0
2018-11-10T00:51:46.070Z,0
2018-11-10T00:52:45.536Z,0
2018-11-10T00:53:45.550Z,0
2018-11-10T00:54:45.546Z,0
2018-11-10T00:55:45.216Z,0
2018-11-10T00:56:45.467Z,0
2018-11-10T00:57:45.978Z,0
2018-11-10T00:58:45.442Z,0
2018-11-10T00:59:45.411Z,0
2018-11-10T01:00:45.143Z,0
2018-11-10T01:01:45.658Z,0
2018-11-10T01:02:45.674Z,0
2018-11-10T01:03:45.609Z,0
2018-11-10T01:04:45.331Z,0
2018-11-10T01:05:45.129Z,0
2018-11-10T01:06:45.304Z,0
2018-11-10T01:07:45.560Z,0
2018-11-10T01:08:45.273Z,0
2018-11-10T01:09:45.303Z,0
2018-11-10T01:10:45.231Z,0
2018-11-10T01:11:45.490Z,0
2018-11-10T01:12:45.205Z,0
2018-11-10T01:13:45.525Z,0
2018-11-10T01:14:45.436Z,0
2018-11-10T01:15:45.423Z,0
2018-11-10T01:16:45.398Z,0
2018-11-10T01:17:44.851Z,0
2018-11-10T01:18:44.845Z,0
2018-11-10T01:19:45.092Z,0
2018-11-10T01:20:44.821Z,0
2018-11-10T01:21:45.318Z,0
2018-11-10T01:22:45.310Z,0
2018-11-10T01:23:45.291Z,0
2018-11-10T01:24:44.738Z,0
2018-11-10T01:25:44.728Z,0
2018-11-10T01:26:45.252Z,0
2018-11-10T01:27:45.405Z,0
2018-11-10T01:28:44.944Z,0
2018-11-10T01:29:45.460Z,0
2018-11-10T01:30:44.914Z,0
2018-11-10T01:31:45.159Z,0
2018-11-10T01:32:45.184Z,0
2018-11-10T01:33:44.863Z,0
2018-11-10T01:34:45.385Z,0
2018-11-10T01:35:45.134Z,0
2018-11-10T01:36:45.071Z,0
2018-11-10T01:37:45.080Z,0
2018-11-10T01:38:44.772Z,0
2018-11-10T01:39:44.765Z,0
2018-11-10T01:40:44.483Z,0
2018-11-10T01:41:45.278Z,0
2018-11-10T01:42:44.996Z,0
2018-11-10T01:43:44.707Z,0
2018-11-10T01:44:44.944Z,0
2018-11-10T01:45:44.414Z,0
2018-11-10T01:46:44.445Z,0
2018-11-10T01:47:44.657Z,0
2018-11-10T01:48:44.892Z,0
2018-11-10T01:49:45.131Z,0
2018-11-10T01:50:44.600Z,0
2018-11-10T01:51:44.845Z,0
2018-11-10T01:52:44.842Z,0
2018-11-10T01:53:44.284Z,0
2018-11-10T01:54:44.792Z,0
2018-11-10T01:55:44.762Z,0
2018-11-10T01:56:44.764Z,0
2018-11-10T01:57:44.748Z,0
2018-11-10T01:58:44.468Z,0
2018-11-10T01:59:44.734Z,0
2018-11-10T02:00:44.970Z,0
2018-11-10T02:01:44.686Z,0
2018-11-10T02:02:44.670Z,0
2018-11-10T02:03:44.676Z,0
2018-11-10T02:04:44.925Z,0
2018-11-10T02:05:44.641Z,0
2018-11-10T02:06:44.345Z,0
2018-11-10T02:07:44.312Z,0
2018-11-10T02:08:44.867Z,0
2018-11-10T02:09:44.830Z,0
2018-11-10T02:10:44.534Z,0
2018-11-10T02:11:44.792Z,0
2018-11-10T02:12:44.038Z,0
2018-11-10T02:13:44.490Z,0
2018-11-10T02:14:44.746Z,0
2018-11-10T02:15:44.482Z,0
2018-11-10T02:16:44.175Z,0
2018-11-10T02:17:44.699Z,0
2018-11-10T02:18:44.724Z,0
2018-11-10T02:19:44.397Z,0
2018-11-10T02:20:44.376Z,0
2018-11-10T02:21:44.352Z,0
2018-11-10T02:22:44.373Z,0
2018-11-10T02:23:44.071Z,0
2018-11-10T02:24:44.097Z,0
2018-11-10T02:25:44.554Z,0
2018-11-10T02:26:44.483Z,0
2018-11-10T02:27:44.282Z,0
2018-11-10T02:28:44.517Z,0
2018-11-10T02:29:44.238Z,0
2018-11-10T02:30:44.017Z,0
2018-11-10T02:31:43.952Z,0
2018-11-10T02:32:43.934Z,0
2018-11-10T02:33:44.186Z,0
2018-11-10T02:34:44.181Z,0
2018-11-10T02:35:44.411Z,0
2018-11-10T02:36:43.858Z,0
2018-11-10T02:37:43.864Z,0
2018-11-10T02:38:44.642Z,0
2018-11-10T02:39:44.370Z,0
2018-11-10T02:40:44.062Z,0
2018-11-10T02:41:44.310Z,0
2018-11-10T02:42:44.034Z,0
2018-11-10T02:43:43.243Z,0
2018-11-10T02:44:44.007Z,0
2018-11-10T02:45:43.999Z,0
2018-11-10T02:46:43.719Z,0
2018-11-10T02:47:44.003Z,0
2018-11-10T02:48:43.413Z,0
2018-11-10T02:49:43.650Z,0
2018-11-10T02:50:43.645Z,0
2018-11-10T02:51:43.888Z,0
2018-11-10T02:52:43.862Z,0
2018-11-10T02:53:43.857Z,0
2018-11-10T02:54:44.112Z,0
2018-11-10T02:55:44.083Z,0
2018-11-10T02:56:44.075Z,0
2018-11-10T02:57:43.534Z,0
2018-11-10T02:58:43.779Z,0
2018-11-10T02:59:43.764Z,0
2018-11-10T03:00:43.750Z,0
2018-11-10T03:01:43.461Z,0
2018-11-10T03:02:43.719Z,0
2018-11-10T03:03:43.699Z,0
2018-11-10T03:04:42.892Z,0
2018-11-10T03:05:43.671Z,0
2018-11-10T03:06:43.925Z,0
2018-11-10T03:07:43.642Z,0
2018-11-10T03:08:43.879Z,0
2018-11-10T03:09:43.596Z,0
2018-11-10T03:10:44.230Z,0
2018-11-10T03:11:43.314Z,0
2018-11-10T03:12:43.576Z,0
2018-11-10T03:13:43.284Z,0
2018-11-10T03:14:43.524Z,0
2018-11-10T03:15:43.783Z,0
2018-11-10T03:16:43.225Z,0
2018-11-10T03:17:43.475Z,0
2018-11-10T03:18:43.198Z,0
2018-11-10T03:19:43.178Z,0
2018-11-10T03:20:43.432Z,0
2018-11-10T03:21:43.435Z,0
2018-11-10T03:22:42.871Z,0
2018-11-10T03:23:43.383Z,0
2018-11-10T03:24:43.128Z,0
2018-11-10T03:25:42.843Z,0
2018-11-10T03:26:43.335Z,0
2018-11-10T03:27:42.538Z,0
2018-11-10T03:28:43.318Z,0
2018-11-10T03:29:43.567Z,0
2018-11-10T03:30:42.767Z,0
2018-11-10T03:31:42.999Z,0
2018-11-10T03:32:43.539Z,0
2018-11-10T03:33:43.500Z,0
2018-11-10T03:34:43.480Z,0
2018-11-10T03:35:43.207Z,0
2018-11-10T03:36:42.930Z,0
2018-11-10T03:37:43.444Z,0
2018-11-10T03:38:42.892Z,0
2018-11-10T03:39:43.135Z,0
2018-11-10T03:40:42.601Z,0
2018-11-10T03:41:43.111Z,0
2018-11-10T03:42:43.101Z,0
2018-11-10T03:43:43.080Z,0
2018-11-10T03:44:42.535Z,0
2018-11-10T03:45:42.790Z,0
2018-11-10T03:46:42.782Z,0
2018-11-10T03:47:43.008Z,0
2018-11-10T03:48:42.818Z,0
2018-11-10T03:49:42.466Z,0
2018-11-10T03:50:42.702Z,0
2018-11-10T03:51:42.683Z,0
2018-11-10T03:52:42.937Z,0
2018-11-10T03:53:42.662Z,0
2018-11-10T03:54:42.910Z,0
2018-11-10T03:55:42.645Z,0
2018-11-10T03:56:42.872Z,0
2018-11-10T03:57:42.853Z,0
2018-11-10T03:58:42.847Z,0
2018-11-10T03:59:42.829Z,0
2018-11-10T04:00:42.810Z,0
2018-11-10T04:01:42.263Z,0
2018-11-10T04:02:42.787Z,0
2018-11-10T04:03:42.246Z,0
2018-11-10T04:04:42.496Z,0
2018-11-10T04:05:42.481Z,0
2018-11-10T04:06:42.502Z,0
2018-11-10T04:07:42.714Z,0
2018-11-10T04:08:42.422Z,0
2018-11-10T04:09:42.951Z,0
2018-11-10T04:10:42.658Z,0
2018-11-10T04:11:42.643Z,0
2018-11-10T04:12:42.633Z,0
2018-11-10T04:13:42.922Z,0
2018-11-10T04:14:42.869Z,0
2018-11-10T04:15:42.344Z,0
2018-11-10T04:16:42.339Z,0
2018-11-10T04:17:42.563Z,0
2018-11-10T04:18:42.272Z,0
2018-11-10T04:19:42.290Z,0
2018-11-10T04:20:42.257Z,0
2018-11-10T04:21:42.281Z,0
2018-11-10T04:22:42.223Z,0
2018-11-10T04:23:42.492Z,0
2018-11-10T04:24:42.184Z,0
2018-11-10T04:25:42.435Z,0
2018-11-10T04:26:42.355Z,0
2018-11-10T04:27:42.406Z,0
2018-11-10T04:28:42.125Z,0
2018-11-10T04:29:42.397Z,0
2018-11-10T04:30:41.834Z,0
2018-11-10T04:31:42.601Z,0
2018-11-10T04:32:42.586Z,0
2018-11-10T04:33:42.584Z,0
2018-11-10T04:34:42.048Z,0
2018-11-10T04:35:42.277Z,0
2018-11-10T04:36:42.000Z,0
2018-11-10T04:37:42.257Z,0
2018-11-10T04:38:42.232Z,0
2018-11-10T04:39:42.220Z,0
2018-11-10T04:40:41.947Z,0
2018-11-10T04:41:42.196Z,0
2018-11-10T04:42:42.449Z,0
2018-11-10T04:43:42.217Z,0
2018-11-10T04:44:41.891Z,0
2018-11-10T04:45:41.604Z,0
2018-11-10T04:46:42.385Z,0
2018-11-10T04:47:42.206Z,0
2018-11-10T04:48:41.556Z,0
2018-11-10T04:49:42.077Z,0
2018-11-10T04:50:41.797Z,0
2018-11-10T04:51:42.326Z,0
2018-11-10T04:52:42.045Z,0
2018-11-10T04:53:42.328Z,0
2018-11-10T04:54:41.991Z,0
2018-11-10T04:55:41.449Z,0
2018-11-10T04:56:41.723Z,0
2018-11-10T04:57:41.954Z,0
2018-11-10T04:58:41.745Z,0
2018-11-10T04:59:41.712Z,0
2018-11-10T05:00:41.379Z,0
2018-11-10T05:01:42.256Z,0
2018-11-10T05:02:41.606Z,0
2018-11-10T05:03:41.591Z,0
2018-11-10T05:04:41.842Z,0
2018-11-10T05:05:41.831Z,0
2018-11-10T05:06:41.818Z,0
2018-11-10T05:07:41.532Z,0
2018-11-10T05:08:41.250Z,0
2018-11-10T05:09:42.044Z,0
2018-11-10T05:10:41.490Z,0
2018-11-10T05:11:41.475Z,0
2018-11-10T05:12:41.725Z,0
2018-11-10T05:13:41.728Z,0
2018-11-10T05:14:41.732Z,0
2018-11-10T05:15:41.698Z,0
2018-11-10T05:16:41.662Z,0
2018-11-10T05:17:41.380Z,0
2018-11-10T05:18:41.382Z,0
2018-11-10T05:19:41.899Z,0
2018-11-10T05:20:41.609Z,0
2018-11-10T05:21:40.799Z,0
2018-11-10T05:22:41.833Z,0
2018-11-10T05:23:41.324Z,0
2018-11-10T05:24:41.817Z,0
2018-11-10T05:25:41.800Z,0
2018-11-10T05:26:41.251Z,0
2018-11-10T05:27:41.241Z,0
2018-11-10T05:28:41.162Z,0
2018-11-10T05:29:41.204Z,0
2018-11-10T05:30:41.731Z,0
2018-11-10T05:31:41.450Z,0
2018-11-10T05:32:41.921Z,0
2018-11-10T05:33:40.885Z,0
2018-11-10T05:34:41.682Z,0
2018-11-10T05:35:41.715Z,0
2018-11-10T05:36:41.320Z,0
2018-11-10T05:37:41.623Z,0
2018-11-10T05:38:41.346Z,0
2018-11-10T05:39:41.438Z,0
2018-11-10T05:40:41.321Z,0
2018-11-10T05:41:40.782Z,0
2018-11-10T05:42:41.288Z,0
2018-11-10T05:43:40.994Z,0
2018-11-10T05:44:40.987Z,0
2018-11-10T05:45:40.442Z,0
2018-11-10T05:46:41.216Z,0
2018-11-10T05:47:40.944Z,0
2018-11-10T05:48:40.923Z,0
2018-11-10T05:49:40.905Z,0
2018-11-10T05:50:41.163Z,0
2018-11-10T05:51:41.406Z,0
2018-11-10T05:52:41.168Z,0
2018-11-10T05:53:40.585Z,0
2018-11-10T05:54:40.841Z,0
2018-11-10T05:55:41.109Z,0
2018-11-10T05:56:41.356Z,0
2018-11-10T05:57:41.465Z,0
2018-11-10T05:58:41.050Z,0
2018-11-10T05:59:40.561Z,0
2018-11-10T06:00:40.780Z,0
2018-11-10T06:01:40.783Z,0
2018-11-10T06:02:41.011Z,0
2018-11-10T06:03:40.808Z,0
2018-11-10T06:04:56.222Z,0
2018-11-10T06:05:40.927Z,0
2018-11-10T06:06:40.949Z,0
2018-11-10T06:07:40.910Z,0
2018-11-10T06:08:40.542Z,0
2018-11-10T06:09:40.859Z,0
2018-11-10T06:10:40.879Z,0
2018-11-10T06:11:40.666Z,0
2018-11-10T06:12:40.380Z,0
2018-11-10T06:13:41.074Z,0
2018-11-10T06:14:40.927Z,0
2018-11-10T06:15:40.796Z,0
2018-11-10T06:16:40.511Z,0
2018-11-10T06:17:40.242Z,0
2018-11-10T06:18:40.296Z,0
2018-11-10T06:19:40.467Z,0
2018-11-10T06:20:40.474Z,0
2018-11-10T06:21:40.438Z,0
2018-11-10T06:22:40.685Z,0
2018-11-10T06:23:40.721Z,0
2018-11-10T06:24:40.127Z,0
2018-11-10T06:25:40.694Z,0
2018-11-10T06:26:41.303Z,0
2018-11-10T06:27:40.076Z,0
2018-11-10T06:28:40.665Z,0
2018-11-10T06:29:40.336Z,0
2018-11-10T06:30:40.604Z,0
2018-11-10T06:31:40.290Z,0
2018-11-10T06:32:41.001Z,0
2018-11-10T06:33:40.001Z,0
2018-11-10T06:34:40.791Z,0
2018-11-10T06:35:40.240Z,0
2018-11-10T06:36:40.480Z,0
2018-11-10T06:37:39.938Z,0
2018-11-10T06:38:40.201Z,0
2018-11-10T06:39:40.453Z,0
2018-11-10T06:40:39.890Z,0
2018-11-10T06:41:40.767Z,0
2018-11-10T06:42:40.676Z,0
2018-11-10T06:43:40.110Z,0
2018-11-10T06:44:40.357Z,0
2018-11-10T06:45:40.622Z,0
2018-11-10T06:46:40.332Z,0
2018-11-10T06:47:40.361Z,0
2018-11-10T06:48:40.309Z,0
2018-11-10T06:49:40.289Z,0
2018-11-10T06:50:40.274Z,0
2018-11-10T06:51:40.004Z,0
2018-11-10T06:52:40.305Z,0
2018-11-10T06:53:39.720Z,0
2018-11-10T06:54:40.224Z,0
2018-11-10T06:55:40.202Z,0
2018-11-10T06:56:40.187Z,0
2018-11-10T06:57:40.431Z,0
2018-11-10T06:58:39.636Z,0
2018-11-10T06:59:40.417Z,0
2018-11-10T07:00:39.612Z,0
2018-11-10T07:01:39.316Z,0
2018-11-10T07:02:40.369Z,0
2018-11-10T07:03:39.986Z,0
2018-11-10T07:04:40.346Z,0
2018-11-10T07:05:40.054Z,5
2018-11-10T07:06:39.770Z,5
2018-11-10T07:07:39.799Z,5
2018-11-10T07:08:39.738Z,5
2018-11-10T07:09:39.975Z,5
2018-11-10T07:10:39.183Z,5
2018-11-10T07:11:39.700Z,5
2018-11-10T07:12:39.945Z,5
2018-11-10T07:13:39.930Z,5
2018-11-10T07:14:39.904Z,5
2018-11-10T07:15:39.895Z,5
2018-11-10T07:16:39.890Z,5
2018-11-10T07:17:39.959Z,5
2018-11-10T07:18:39.844Z,5
2018-11-10T07:19:39.576Z,5
2018-11-10T07:20:39.846Z,5
2018-11-10T07:21:39.277Z,5
2018-11-10T07:22:39.260Z,5
2018-11-10T07:23:40.043Z,5
2018-11-10T07:24:39.495Z,5
2018-11-10T07:25:39.217Z,5
2018-11-10T07:26:39.765Z,5
2018-11-10T07:27:39.709Z,5
2018-11-10T07:28:39.446Z,5
2018-11-10T07:29:39.159Z,5
2018-11-10T07:30:39.690Z,5
2018-11-10T07:31:39.939Z,5
2018-11-10T07:32:39.949Z,10
2018-11-10T07:33:39.632Z,10
2018-11-10T07:34:39.868Z,10
2018-11-10T07:35:39.585Z,10
2018-11-10T07:36:39.323Z,10
2018-11-10T07:37:39.547Z,5
2018-11-10T07:38:39.575Z,5
2018-11-10T07:39:39.259Z,5
2018-11-10T07:40:39.511Z,5
2018-11-10T07:41:38.978Z,5
2018-11-10T07:42:38.943Z,5
2018-11-10T07:43:39.195Z,10
2018-11-10T07:44:39.455Z,10
2018-11-10T07:45:39.746Z,10
2018-11-10T07:46:39.168Z,10
2018-11-10T07:47:38.896Z,15
2018-11-10T07:48:39.441Z,15
2018-11-10T07:49:39.311Z,15
2018-11-10T07:50:39.357Z,20
2018-11-10T07:51:39.369Z,20
2018-11-10T07:52:39.312Z,20
2018-11-10T07:53:39.297Z,25
2018-11-10T07:54:38.771Z,25
2018-11-10T07:55:39.521Z,30
2018-11-10T07:56:39.294Z,30
2018-11-10T07:57:39.242Z,30
2018-11-10T07:58:39.231Z,35
2018-11-10T07:59:39.221Z,40
2018-11-10T08:00:39.283Z,40
2018-11-10T08:01:38.944Z,45
2018-11-10T08:02:38.939Z,45
2018-11-10T08:03:39.456Z,50
2018-11-10T08:04:39.279Z,55
2018-11-10T08:05:39.382Z,55
2018-11-10T08:06:38.612Z,60
2018-11-10T08:07:38.571Z,65
2018-11-10T08:08:38.818Z,70
2018-11-10T08:09:39.049Z,75
2018-11-10T08:10:39.049Z,80
2018-11-10T08:11:38.552Z,80
2018-11-10T08:12:38.769Z,80
2018-11-10T08:13:38.977Z,80
2018-11-10T08:14:38.981Z,70
2018-11-10T08:15:39.012Z,65
2018-11-10T08:16:38.963Z,55
2018-11-10T08:17:38.955Z,45
2018-11-10T08:18:39.123Z,45
2018-11-10T08:19:38.907Z,40
2018-11-10T08:20:38.634Z,35
2018-11-10T08:21:38.863Z,35
2018-11-10T08:22:38.858Z,40
2018-11-10T08:23:38.605Z,40
2018-11-10T08:24:38.545Z,40
2018-11-10T08:25:38.813Z,45
2018-11-10T08:26:38.524Z,45
2018-11-10T08:27:39.035Z,45
2018-11-10T08:28:38.493Z,40
2018-11-10T08:29:39.060Z,35
2018-11-10T08:30:38.725Z,30
2018-11-10T08:31:38.981Z,30
2018-11-10T08:32:38.960Z,30
2018-11-10T08:33:38.456Z,25
2018-11-10T08:34:39.002Z,25
2018-11-10T08:35:38.774Z,20
2018-11-10T08:36:38.140Z,20
2018-11-10T08:37:38.155Z,20
2018-11-10T08:38:38.490Z,20
2018-11-10T08:39:38.561Z,20
2018-11-10T08:40:38.295Z,20
2018-11-10T08:41:38.059Z,20
2018-11-10T08:42:38.840Z,20
2018-11-10T08:43:38.552Z,20
2018-11-10T08:44:38.525Z,20
2018-11-10T08:45:38.243Z,20
2018-11-10T08:46:38.486Z,15
2018-11-10T08:47:38.467Z,15
2018-11-10T08:48:38.646Z,15
2018-11-10T08:49:38.438Z,15
2018-11-10T08:50:38.451Z,15
2018-11-10T08:51:38.702Z,20
2018-11-10T08:52:37.881Z,20
2018-11-10T08:53:38.102Z,20
2018-11-10T08:54:38.090Z,25
2018-11-10T08:55:37.812Z,25
2018-11-10T08:56:37.846Z,25
2018-11-10T08:57:38.727Z,25
2018-11-10T08:58:38.082Z,25
2018-11-10T08:59:38.588Z,30
2018-11-10T09:00:38.128Z,35
2018-11-10T09:01:37.997Z,40
2018-11-10T09:02:38.332Z,45
2018-11-10T09:03:38.005Z,45
2018-11-10T09:04:38.373Z,45
2018-11-10T09:05:37.970Z,45
2018-11-10T09:06:38.243Z,40
2018-11-10T09:07:38.190Z,45
2018-11-10T09:08:37.620Z,45
2018-11-10T09:09:38.154Z,50
2018-11-10T09:10:38.132Z,50
2018-11-10T09:11:38.372Z,50
2018-11-10T09:12:38.098Z,50
2018-11-10T09:13:37.808Z,50
2018-11-10T09:14:37.536Z,50
2018-11-10T09:15:37.788Z,50
2018-11-10T09:16:37.764Z,50
2018-11-10T09:17:38.216Z,50
2018-11-10T09:18:37.999Z,45
2018-11-10T09:19:38.249Z,50
2018-11-10T09:20:37.740Z,50
2018-11-10T09:21:38.843Z,50
2018-11-10T09:22:37.675Z,50
2018-11-10T09:23:37.914Z,60
2018-11-10T09:24:38.126Z,60
2018-11-10T09:25:37.647Z,60
2018-11-10T09:26:37.886Z,60
2018-11-10T09:27:37.891Z,65
2018-11-10T09:28:37.341Z,70
2018-11-10T09:29:38.156Z,75
2018-11-10T09:30:37.348Z,75
2018-11-10T09:31:38.155Z,70
2018-11-10T09:32:37.894Z,55
2018-11-10T09:33:37.508Z,45
2018-11-10T09:34:37.291Z,45
2018-11-10T09:35:37.277Z,45
2018-11-10T09:36:38.416Z,40
2018-11-10T09:37:37.432Z,40
2018-11-10T09:38:37.440Z,40
2018-11-10T09:39:37.682Z,40
2018-11-10T09:40:37.929Z,40
2018-11-10T09:41:37.391Z,45
2018-11-10T09:42:38.193Z,50
2018-11-10T09:43:37.098Z,50
2018-11-10T09:44:37.604Z,55
2018-11-10T09:45:37.598Z,55
2018-11-10T09:46:37.054Z,50
2018-11-10T09:47:37.569Z,45
2018-11-10T09:48:37.268Z,40
2018-11-10T09:49:37.825Z,40
2018-11-10T09:50:37.690Z,35
2018-11-10T09:51:37.561Z,35
2018-11-10T09:52:37.612Z,35
2018-11-10T09:53:36.976Z,40
2018-11-10T09:54:37.773Z,45
2018-11-10T09:55:37.237Z,45
2018-11-10T09:56:37.490Z,40
2018-11-10T09:57:37.738Z,45
2018-11-10T09:58:37.425Z,45
2018-11-10T09:59:37.112Z,45
2018-11-10T10:00:37.308Z,45
2018-11-10T10:01:37.987Z,45
2018-11-10T10:02:41.265Z,50
2018-11-10T10:03:37.330Z,50
2018-11-10T10:04:37.038Z,55
2018-11-10T10:05:37.557Z,60
2018-11-10T10:06:37.017Z,70
2018-11-10T10:07:36.996Z,70
2018-11-10T10:08:37.317Z,70
2018-11-10T10:09:37.260Z,70
2018-11-10T10:10:36.969Z,70
2018-11-10T10:11:36.995Z,75
2018-11-10T10:12:36.856Z,80
2018-11-10T10:13:37.193Z,80
2018-11-10T10:14:36.733Z,80
2018-11-10T10:15:37.150Z,80
2018-11-10T10:16:37.428Z,85
2018-11-10T10:17:36.591Z,95
2018-11-10T10:18:37.113Z,90
2018-11-10T10:19:37.092Z,85
2018-11-10T10:20:36.824Z,85
2018-11-10T10:21:37.162Z,90
2018-11-10T10:22:37.144Z,90
2018-11-10T10:23:36.759Z,90
2018-11-10T10:24:36.754Z,90
2018-11-10T10:25:37.050Z,85
2018-11-10T10:26:36.987Z,85
2018-11-10T10:27:37.178Z,80
2018-11-10T10:28:37.177Z,80
2018-11-10T10:29:36.684Z,80
2018-11-10T10:30:36.763Z,80
2018-11-10T10:31:36.682Z,80
2018-11-10T10:32:36.371Z,80
2018-11-10T10:33:37.172Z,80
2018-11-10T10:34:37.511Z,85
2018-11-10T10:35:37.092Z,85
2018-11-10T10:36:37.115Z,80
2018-11-10T10:37:36.821Z,80
2018-11-10T10:38:37.104Z,85
2018-11-10T10:39:36.562Z,85
2018-11-10T10:40:37.086Z,85
2018-11-10T10:41:36.775Z,90
2018-11-10T10:42:37.029Z,95
2018-11-10T10:43:36.475Z,95
2018-11-10T10:44:36.720Z,95
2018-11-10T10:45:36.442Z,100
2018-11-10T10:46:36.997Z,100
2018-11-10T10:47:36.681Z,100
2018-11-10T10:48:37.404Z,100
2018-11-10T10:49:36.132Z,105
2018-11-10T10:50:36.400Z,120
2018-11-10T10:51:36.345Z,135
2018-11-10T10:52:36.925Z,140
2018-11-10T10:53:36.343Z,140
2018-11-10T10:54:36.580Z,150
2018-11-10T10:55:36.838Z,145
2018-11-10T10:56:36.653Z,135
2018-11-10T10:57:36.536Z,125
2018-11-10T10:58:36.800Z,115
2018-11-10T10:59:36.250Z,115
2018-11-10T11:00:36.519Z,110
2018-11-10T11:01:36.218Z,105
2018-11-10T11:02:35.999Z,100
2018-11-10T11:03:36.483Z,95
2018-11-10T11:04:35.918Z,95
2018-11-10T11:05:36.165Z,90
2018-11-10T11:06:36.145Z,85
2018-11-10T11:07:36.398Z,90
2018-11-10T11:08:36.387Z,95
2018-11-10T11:09:37.232Z,100
2018-11-10T11:10:36.094Z,95
2018-11-10T11:11:35.820Z,95
2018-11-10T11:12:36.057Z,85
2018-11-10T11:13:36.044Z,80
2018-11-10T11:14:36.674Z,65
2018-11-10T11:15:37.938Z,55
2018-11-10T11:16:36.009Z,55
2018-11-10T11:17:36.305Z,60
2018-11-10T11:18:36.553Z,65
2018-11-10T11:19:36.006Z,65
2018-11-10T11:20:35.986Z,60
2018-11-10T11:21:35.668Z,60
2018-11-10T11:22:36.188Z,65
2018-11-10T11:23:35.657Z,70
2018-11-10T11:24:35.363Z,75
2018-11-10T11:25:35.881Z,70
2018-11-10T11:26:36.137Z,70
2018-11-10T11:27:35.859Z,75
2018-11-10T11:28:36.102Z,70
2018-11-10T11:29:36.668Z,70
2018-11-10T11:30:35.541Z,70
2018-11-10T11:31:36.319Z,70
2018-11-10T11:32:36.316Z,75
2018-11-10T11:33:36.028Z,75
2018-11-10T11:34:35.767Z,75
2018-11-10T11:35:35.936Z,75
2018-11-10T11:36:36.041Z,70
2018-11-10T11:37:36.241Z,75
2018-11-10T11:38:36.006Z,80
2018-11-10T11:39:35.417Z,75
2018-11-10T11:40:35.395Z,70
2018-11-10T11:41:36.555Z,65
2018-11-10T11:42:35.648Z,65
2018-11-10T11:43:35.897Z,65
2018-11-10T11:44:35.894Z,65
2018-11-10T11:45:36.122Z,65
2018-11-10T11:46:36.184Z,70
2018-11-10T11:47:35.912Z,70
2018-11-10T11:48:35.547Z,75
2018-11-10T11:49:35.842Z,80
2018-11-10T11:50:35.816Z,85
2018-11-10T11:51:35.249Z,85
2018-11-10T11:52:35.504Z,85
2018-11-10T11:53:36.026Z,95
2018-11-10T11:54:35.806Z,100
2018-11-10T11:55:35.724Z,115
2018-11-10T11:56:36.060Z,125
2018-11-10T11:57:35.689Z,155
2018-11-10T11:58:35.409Z,165
2018-11-10T11:59:35.975Z,185
2018-11-10T12:00:35.656Z,200
2018-11-10T12:01:35.890Z,205
2018-11-10T12:02:35.615Z,210
2018-11-10T12:03:35.662Z,200
2018-11-10T12:04:35.571Z,185
2018-11-10T12:05:34.783Z,175
2018-11-10T12:06:35.565Z,170
2018-11-10T12:07:35.817Z,155
2018-11-10T12:08:35.280Z,145
2018-11-10T12:09:35.527Z,135
2018-11-10T12:10:35.518Z,130
2018-11-10T12:11:35.520Z,130
2018-11-10T12:12:35.492Z,125
2018-11-10T12:13:35.757Z,125
2018-11-10T12:14:35.195Z,120
2018-11-10T12:15:36.291Z,120
2018-11-10T12:16:37.310Z,120
2018-11-10T12:17:34.896Z,120
2018-11-10T12:18:34.879Z,115
2018-11-10T12:19:34.592Z,115
2018-11-10T12:20:35.119Z,110
2018-11-10T12:21:35.629Z,110
2018-11-10T12:22:34.824Z,105
2018-11-10T12:23:35.067Z,105
2018-11-10T12:24:35.583Z,105
2018-11-10T12:25:35.308Z,105
2018-11-10T12:26:35.405Z,100
2018-11-10T12:27:35.228Z,100
2018-11-10T12:28:35.050Z,95
2018-11-10T12:29:35.011Z,90
2018-11-10T12:30:35.002Z,90
2018-11-10T12:31:34.803Z,90
2018-11-10T12:32:35.011Z,85
2018-11-10T12:33:35.473Z,80
2018-11-10T12:34:35.519Z,80
2018-11-10T12:35:34.901Z,75
2018-11-10T12:36:35.166Z,70
2018-11-10T12:37:34.920Z,70
2018-11-10T12:38:34.971Z,70
2018-11-10T12:39:35.125Z,65
2018-11-10T12:40:34.842Z,65
2018-11-10T12:41:35.103Z,65
2018-11-10T12:42:35.345Z,65
2018-11-10T12:43:34.806Z,60
2018-11-10T12:44:35.309Z,60
2018-11-10T12:45:34.788Z,55
2018-11-10T12:46:35.144Z,55
2018-11-10T12:47:35.271Z,50
2018-11-10T12:48:35.007Z,50
2018-11-10T12:49:34.714Z,50
2018-11-10T12:50:35.058Z,50
2018-11-10T12:51:34.691Z,50
2018-11-10T12:52:34.689Z,55
2018-11-10T12:53:34.926Z,50
2018-11-10T12:54:34.663Z,50
2018-11-10T12:55:34.830Z,55
2018-11-10T12:56:34.905Z,55
2018-11-10T12:57:34.339Z,50
2018-11-10T12:58:34.861Z,50
2018-11-10T12:59:34.852Z,50
2018-11-10T13:00:34.828Z,50
2018-11-10T13:01:34.548Z,50
2018-11-10T13:02:34.266Z,50
2018-11-10T13:03:34.669Z,50
2018-11-10T13:04:34.530Z,50
2018-11-10T13:05:35.016Z,50
2018-11-10T13:06:34.750Z,50
2018-11-10T13:07:34.721Z,50
2018-11-10T13:08:34.183Z,50
2018-11-10T13:09:34.495Z,45
2018-11-10T13:10:34.802Z,45
2018-11-10T13:11:35.643Z,45
2018-11-10T13:12:34.654Z,45
2018-11-10T13:13:34.845Z,45
2018-11-10T13:14:34.976Z,45
2018-11-10T13:15:34.354Z,45
2018-11-10T13:16:35.534Z,45
2018-11-10T13:17:35.016Z,45
2018-11-10T13:18:34.313Z,45
2018-11-10T13:19:34.307Z,45
2018-11-10T13:20:34.892Z,45
2018-11-10T13:21:34.864Z,45
2018-11-10T13:22:34.252Z,45
2018-11-10T13:23:34.232Z,45
2018-11-10T13:24:34.494Z,45
2018-11-10T13:25:34.235Z,45
2018-11-10T13:26:34.203Z,45
2018-11-10T13:27:34.445Z,45
2018-11-10T13:28:34.704Z,45
2018-11-10T13:29:34.455Z,45
2018-11-10T13:30:34.418Z,45
2018-11-10T13:31:35.711Z,40
2018-11-10T13:32:34.386Z,40
2018-11-10T13:33:34.353Z,40
2018-11-10T13:34:34.338Z,45
2018-11-10T13:35:34.327Z,45
2018-11-10T13:36:34.063Z,45
2018-11-10T13:37:34.037Z,45
2018-11-10T13:38:33.792Z,50
2018-11-10T13:39:34.282Z,55
2018-11-10T13:40:33.990Z,60
2018-11-10T13:41:34.028Z,60
2018-11-10T13:42:34.073Z,65
2018-11-10T13:43:34.070Z,70
2018-11-10T13:44:33.475Z,75
2018-11-10T13:45:34.186Z,80
2018-11-10T13:46:33.914Z,80
2018-11-10T13:47:33.890Z,85
2018-11-10T13:48:34.158Z,85
2018-11-10T13:49:33.866Z,90
2018-11-10T13:50:33.665Z,90
2018-11-10T13:51:35.492Z,85
2018-11-10T13:52:36.352Z,85
2018-11-10T13:53:33.542Z,85
2018-11-10T13:54:33.784Z,85
2018-11-10T13:55:33.765Z,80
2018-11-10T13:56:34.297Z,70
2018-11-10T13:57:33.507Z,65
2018-11-10T13:58:34.029Z,60
2018-11-10T13:59:34.015Z,60
2018-11-10T14:00:33.695Z,60
2018-11-10T14:01:33.688Z,55
2018-11-10T14:02:33.726Z,55
2018-11-10T14:03:33.658Z,55
2018-11-10T14:04:33.961Z,55
2018-11-10T14:05:34.196Z,55
2018-11-10T14:06:33.889Z,60
2018-11-10T14:07:33.607Z,55
2018-11-10T14:08:34.111Z,55
2018-11-10T14:09:33.835Z,50
2018-11-10T14:10:34.034Z,50
2018-11-10T14:11:33.548Z,50
2018-11-10T14:12:33.992Z,45
2018-11-10T14:13:34.044Z,40
2018-11-10T14:14:34.036Z,40
2018-11-10T14:15:34.016Z,35
2018-11-10T14:16:33.472Z,35
2018-11-10T14:17:33.729Z,30
2018-11-10T14:18:33.721Z,30
2018-11-10T14:19:33.702Z,30
2018-11-10T14:20:33.502Z,30
2018-11-10T14:21:33.675Z,30
2018-11-10T14:22:33.649Z,30
2018-11-10T14:23:33.356Z,25
2018-11-10T14:24:33.648Z,25
2018-11-10T14:25:33.866Z,20
2018-11-10T14:26:33.974Z,20
2018-11-10T14:27:33.522Z,20
2018-11-10T14:28:33.845Z,20
2018-11-10T14:29:33.298Z,20
2018-11-10T14:30:33.265Z,20